Decoded Metar for LFKJ (AJACCIO in CORSE ISL.) (IATA:AJA) | Meteo·Mobile Aviation Weather
aviador You're here:

LFKJ Decoded Metar

AJACCIO in CORSE ISL.
Report Time2020-02-23 10:30:00
UTC Time2020-02-23 10:58:57
Flight Rules mvfr MVFR
Wind240° at 04 kt
W.Decomp.*RWY 20: 3.1 kt HW 2.5 kt RCW
Visibility9999 m
Phenomena:N/A
Clouds:Broken 026 Hf
Expected CloudBase > 2,000 ft AGL from Temp-Dew spread
Ceiling2,600 ft
Temp15°C (ISA 0)
Dew Point10°C (72% RH)
AAT13.6°C
QNH1032 hPa
Density Alt-436 ft
Elevation30 ft
Report Wrong Elevation
Raw Report
LFKJ 231030Z AUTO 24004KT 210V270 9999 BKN026 15/10 Q1032
NOSIG=

Extra information for LFKJ:More info

Metar Taf Metar & Taf Last 4 Metars F.Rules Stats Wind Profile Meteogram Temp Stats Airport Information Weather charts Add Link Nearby VenuesMetar ALERT Operation Metar Decoded Social comments